createdAt,value
2022-11-17T00:00:48.958Z,98.18
2022-11-17T00:02:52.051Z,98.25
2022-11-17T00:04:55.061Z,98.43
2022-11-17T00:06:58.496Z,97.94
2022-11-17T00:09:01.486Z,98.26
2022-11-17T00:11:05.188Z,98.45
2022-11-17T00:13:25.727Z,98.28
2022-11-17T00:15:30.194Z,98.36
2022-11-17T00:17:33.179Z,98.99
2022-11-17T00:19:56.059Z,98.34
2022-11-17T00:21:59.012Z,98.94
2022-11-17T00:24:01.973Z,98.71
2022-11-17T00:26:04.916Z,98.75
2022-11-17T00:28:07.841Z,98.56
2022-11-17T00:30:31.488Z,98.77
2022-11-17T00:33:08.275Z,98.76
2022-11-17T00:35:11.327Z,98.80
2022-11-17T00:37:14.708Z,98.71
2022-11-17T00:39:19.569Z,98.77
2022-11-17T00:41:22.513Z,98.97
2022-11-17T00:43:25.456Z,98.93
2022-11-17T00:45:28.431Z,98.58
2022-11-17T00:47:31.476Z,98.79
2022-11-17T00:49:36.660Z,98.83
2022-11-17T00:51:40.018Z,99.64
2022-11-17T00:53:42.956Z,98.89
2022-11-17T00:55:46.035Z,98.93
2022-11-17T00:57:48.999Z,99.46
2022-11-17T00:59:52.062Z,99.36
2022-11-17T01:01:55.667Z,98.70
2022-11-17T01:04:04.126Z,99.34
2022-11-17T01:06:11.480Z,99.17
2022-11-17T01:08:14.438Z,99.23
2022-11-17T01:10:17.580Z,99.24
2022-11-17T01:12:20.505Z,99.38
2022-11-17T01:14:25.049Z,100.00
2022-11-17T01:16:29.136Z,99.38
2022-11-17T01:18:32.423Z,99.53
2022-11-17T01:20:35.360Z,99.97
2022-11-17T01:22:39.674Z,100.00
2022-11-17T01:24:42.554Z,100.00
2022-11-17T01:26:46.591Z,100.00
2022-11-17T01:28:50.377Z,99.80
2022-11-17T01:31:00.201Z,99.68
2022-11-17T01:33:03.224Z,100.00
2022-11-17T01:35:07.121Z,100.00
2022-11-17T01:37:21.795Z,100.00
2022-11-17T01:39:27.248Z,100.00
2022-11-17T01:41:30.149Z,99.80
2022-11-17T01:43:41.916Z,99.71
2022-11-17T01:45:45.362Z,100.00
2022-11-17T01:47:50.545Z,99.95
2022-11-17T01:49:56.921Z,100.00
2022-11-17T01:52:04.202Z,100.00
2022-11-17T01:54:07.930Z,100.00
2022-11-17T01:56:14.427Z,100.00
2022-11-17T01:58:20.953Z,100.00
2022-11-17T02:00:24.184Z,100.00
2022-11-17T02:02:27.399Z,100.00
2022-11-17T02:04:32.733Z,100.00
2022-11-17T02:06:37.214Z,100.00
2022-11-17T02:08:41.483Z,100.00
2022-11-17T02:10:51.261Z,100.00
2022-11-17T02:12:56.157Z,100.00
2022-11-17T02:14:59.140Z,100.00
2022-11-17T02:17:10.085Z,100.00
2022-11-17T02:19:17.605Z,100.00
2022-11-17T02:21:33.262Z,100.00
2022-11-17T02:23:59.325Z,100.00
2022-11-17T02:26:52.894Z,99.41
2022-11-17T02:29:01.727Z,100.00
2022-11-17T02:31:13.331Z,100.00
2022-11-17T02:33:20.882Z,99.68
2022-11-17T02:35:27.571Z,100.00
2022-11-17T02:37:34.878Z,99.64
2022-11-17T02:39:41.204Z,99.54
2022-11-17T02:41:47.947Z,98.51
2022-11-17T02:44:07.665Z,99.25
2022-11-17T02:46:14.344Z,97.93
2022-11-17T02:48:20.661Z,96.88
2022-11-17T02:50:28.239Z,96.70
2022-11-17T02:52:32.007Z,95.38
2022-11-17T02:54:35.032Z,94.74
2022-11-17T02:56:42.100Z,95.26
2022-11-17T02:58:45.425Z,94.26
2022-11-17T03:00:56.753Z,94.50
2022-11-17T03:03:16.752Z,94.49
2022-11-17T03:05:24.248Z,94.19
2022-11-17T03:07:41.067Z,94.18
2022-11-17T03:09:48.421Z,94.47
2022-11-17T03:11:55.235Z,93.14
2022-11-17T03:14:03.939Z,94.34
2022-11-17T03:16:16.182Z,92.55
2022-11-17T03:18:22.861Z,93.42
2022-11-17T03:20:27.569Z,92.38
2022-11-17T03:22:35.237Z,93.71
2022-11-17T03:24:41.546Z,91.92
2022-11-17T03:26:48.477Z,91.83
2022-11-17T03:28:51.524Z,92.54
2022-11-17T03:30:54.838Z,93.57
2022-11-17T03:33:02.212Z,91.90
2022-11-17T03:35:12.494Z,92.27
2022-11-17T03:37:16.929Z,93.03
2022-11-17T03:39:23.691Z,91.19
2022-11-17T03:41:27.286Z,92.25
2022-11-17T03:43:32.447Z,91.99
2022-11-17T03:45:36.960Z,92.17
2022-11-17T03:47:40.155Z,91.39
2022-11-17T03:49:46.335Z,90.69
2022-11-17T03:51:50.682Z,90.12
2022-11-17T03:53:53.886Z,92.29
2022-11-17T03:56:01.270Z,90.78
2022-11-17T03:58:07.881Z,90.94
2022-11-17T04:00:13.715Z,91.52
2022-11-17T04:02:18.357Z,93.52
2022-11-17T04:04:23.311Z,92.07
2022-11-17T04:06:26.319Z,93.38
2022-11-17T04:08:31.741Z,92.81
2022-11-17T04:10:54.712Z,93.82
2022-11-17T04:13:26.663Z,93.70
2022-11-17T04:15:43.711Z,93.39
2022-11-17T04:17:46.665Z,92.30
2022-11-17T04:19:49.647Z,94.26
2022-11-17T04:21:52.604Z,93.64
2022-11-17T04:23:57.935Z,93.18
2022-11-17T04:26:18.377Z,93.53
2022-11-17T04:28:40.055Z,92.03
2022-11-17T04:30:43.068Z,93.93
2022-11-17T04:32:45.986Z,93.56
2022-11-17T04:34:48.910Z,93.66
2022-11-17T04:36:51.902Z,93.34
2022-11-17T04:38:57.891Z,93.43
2022-11-17T04:41:23.530Z,94.68
2022-11-17T04:43:26.469Z,95.13
2022-11-17T04:45:29.348Z,94.96
2022-11-17T04:47:32.343Z,96.04
2022-11-17T04:49:35.520Z,95.93
2022-11-17T04:51:39.063Z,96.38
2022-11-17T04:53:42.501Z,96.46
2022-11-17T04:55:47.182Z,96.83
2022-11-17T04:57:50.093Z,95.46
2022-11-17T04:59:53.038Z,95.83
2022-11-17T05:01:57.851Z,95.78
2022-11-17T05:04:05.994Z,96.45
2022-11-17T05:06:09.272Z,95.88
2022-11-17T05:08:12.243Z,95.67
2022-11-17T05:10:15.448Z,97.55
2022-11-17T05:12:33.678Z,96.98
2022-11-17T05:14:36.638Z,96.29
2022-11-17T05:16:57.389Z,96.66
2022-11-17T05:19:00.368Z,96.65
2022-11-17T05:21:03.561Z,97.46
2022-11-17T05:23:23.982Z,99.22
2022-11-17T05:25:26.975Z,97.21
2022-11-17T05:27:31.323Z,98.29
2022-11-17T05:29:34.260Z,99.58
2022-11-17T05:31:37.259Z,99.30
2022-11-17T05:33:40.687Z,99.00
2022-11-17T05:35:43.817Z,100.00
2022-11-17T05:37:46.804Z,99.00
2022-11-17T05:39:49.801Z,99.81
2022-11-17T05:41:52.815Z,99.89
2022-11-17T05:43:57.664Z,100.00
2022-11-17T05:46:00.744Z,99.55
2022-11-17T05:48:03.915Z,99.75
2022-11-17T05:50:07.834Z,100.00
2022-11-17T05:52:10.792Z,99.86
2022-11-17T05:54:13.726Z,100.00
2022-11-17T05:56:29.713Z,100.00
2022-11-17T05:58:34.656Z,100.00
2022-11-17T06:00:40.595Z,100.00
2022-11-17T06:02:48.687Z,100.00
2022-11-17T06:04:52.669Z,99.81
2022-11-17T06:06:59.070Z,99.95
2022-11-17T06:09:02.286Z,100.00
2022-11-17T06:11:05.488Z,100.00
2022-11-17T06:13:08.417Z,100.00
2022-11-17T06:15:11.731Z,100.00
2022-11-17T06:17:22.532Z,100.00
2022-11-17T06:19:28.940Z,100.00
2022-11-17T06:21:49.302Z,100.00
2022-11-17T06:23:55.265Z,99.97
2022-11-17T06:25:58.651Z,100.00
2022-11-17T06:28:04.077Z,99.70
2022-11-17T06:30:08.321Z,99.88
2022-11-17T06:32:11.344Z,99.88
2022-11-17T06:34:15.918Z,100.00
2022-11-17T06:36:18.904Z,100.00
2022-11-17T06:38:21.939Z,100.00
2022-11-17T06:40:24.965Z,99.55
2022-11-17T06:42:41.940Z,100.00
2022-11-17T06:44:44.965Z,99.95
2022-11-17T06:46:49.314Z,99.45
2022-11-17T06:48:55.573Z,100.00
2022-11-17T06:50:59.924Z,99.99
2022-11-17T06:53:04.938Z,100.00
2022-11-17T06:55:09.241Z,100.00
2022-11-17T06:57:12.404Z,100.00
2022-11-17T06:59:16.063Z,100.00
2022-11-17T07:01:19.276Z,100.00
2022-11-17T07:03:22.339Z,99.79
2022-11-17T07:05:25.427Z,100.00
2022-11-17T07:07:29.885Z,99.33
2022-11-17T07:09:32.985Z,99.64
2022-11-17T07:11:37.091Z,100.00
2022-11-17T07:13:40.899Z,99.28
2022-11-17T07:15:44.007Z,98.35
2022-11-17T07:17:47.072Z,97.64
2022-11-17T07:19:50.039Z,99.30
2022-11-17T07:21:53.191Z,98.87
2022-11-17T07:23:57.640Z,97.26
2022-11-17T07:26:00.967Z,96.65
2022-11-17T07:28:04.099Z,96.50
2022-11-17T07:30:08.162Z,95.38
2022-11-17T07:32:14.917Z,94.69
2022-11-17T07:34:18.043Z,94.91
2022-11-17T07:36:21.135Z,94.34
2022-11-17T07:38:24.285Z,93.90
2022-11-17T07:40:28.963Z,92.25
2022-11-17T07:42:32.579Z,92.07
2022-11-17T07:44:35.695Z,91.81
2022-11-17T07:46:38.766Z,92.11
2022-11-17T07:48:42.491Z,92.18
2022-11-17T07:50:45.696Z,91.31
2022-11-17T07:52:49.248Z,91.38
2022-11-17T07:54:52.370Z,91.21
2022-11-17T07:56:56.712Z,92.23
2022-11-17T07:58:59.724Z,91.99
2022-11-17T08:01:06.118Z,91.61
2022-11-17T08:03:10.141Z,91.77
2022-11-17T08:05:13.207Z,91.40
2022-11-17T08:07:16.367Z,91.91
2022-11-17T08:09:19.451Z,91.45
2022-11-17T08:11:22.916Z,91.39
2022-11-17T08:13:27.258Z,91.39
2022-11-17T08:15:30.738Z,90.94
2022-11-17T08:17:33.825Z,90.64
2022-11-17T08:19:37.025Z,89.82
2022-11-17T08:21:41.135Z,90.16
2022-11-17T08:23:44.238Z,89.30
2022-11-17T08:25:47.289Z,89.99
2022-11-17T08:27:52.175Z,89.94
2022-11-17T08:29:56.684Z,90.26
2022-11-17T08:31:59.772Z,89.04
2022-11-17T08:34:02.964Z,89.08
2022-11-17T08:36:07.257Z,89.20
2022-11-17T08:38:11.638Z,88.19
2022-11-17T08:40:15.755Z,88.52
2022-11-17T08:42:18.908Z,88.96
2022-11-17T08:44:22.208Z,87.96
2022-11-17T08:46:27.160Z,88.50
2022-11-17T08:48:31.679Z,88.34
2022-11-17T08:50:35.094Z,88.34
2022-11-17T08:52:38.143Z,87.18
2022-11-17T08:54:41.281Z,88.15
2022-11-17T08:56:46.127Z,88.07
2022-11-17T08:58:50.208Z,89.36
2022-11-17T09:00:53.428Z,89.05
2022-11-17T09:02:58.263Z,88.86
2022-11-17T09:05:01.464Z,88.95
2022-11-17T09:07:04.616Z,88.78
2022-11-17T09:09:07.970Z,88.62
2022-11-17T09:11:12.289Z,88.47
2022-11-17T09:13:18.581Z,87.67
2022-11-17T09:15:22.168Z,88.18
2022-11-17T09:17:25.348Z,88.25
2022-11-17T09:19:30.472Z,87.95
2022-11-17T09:21:33.870Z,88.39
2022-11-17T09:23:38.097Z,89.61
2022-11-17T09:25:41.513Z,89.74
2022-11-17T09:27:44.621Z,88.65
2022-11-17T09:29:47.988Z,89.32
2022-11-17T09:31:51.221Z,89.38
2022-11-17T09:33:54.459Z,89.51
2022-11-17T09:35:59.432Z,90.71
2022-11-17T09:38:02.522Z,90.29
2022-11-17T09:40:06.589Z,90.09
2022-11-17T09:42:14.764Z,89.95
2022-11-17T09:44:25.802Z,90.00
2022-11-17T09:46:33.290Z,89.99
2022-11-17T09:48:41.901Z,89.38
2022-11-17T09:50:46.320Z,91.24
2022-11-17T09:53:00.807Z,89.01
2022-11-17T09:55:33.931Z,89.76
2022-11-17T09:57:48.933Z,89.29
2022-11-17T10:00:03.774Z,89.04
2022-11-17T10:02:11.881Z,89.28
2022-11-17T10:04:17.079Z,89.78
2022-11-17T10:06:22.084Z,89.66
2022-11-17T10:08:33.588Z,89.80
2022-11-17T10:10:41.391Z,89.66
2022-11-17T10:12:50.219Z,89.79
2022-11-17T10:14:53.555Z,90.38
2022-11-17T10:16:58.433Z,90.38
2022-11-17T10:19:03.179Z,89.81
2022-11-17T10:21:08.140Z,90.18
2022-11-17T10:23:15.048Z,89.94
2022-11-17T10:25:46.420Z,89.93
2022-11-17T10:27:53.847Z,89.72
2022-11-17T10:29:58.549Z,89.45
2022-11-17T10:32:04.564Z,89.15
2022-11-17T10:34:09.437Z,88.01
2022-11-17T10:36:19.350Z,88.97
2022-11-17T10:38:23.755Z,88.91
2022-11-17T10:40:27.780Z,88.04
2022-11-17T10:42:32.380Z,86.78
2022-11-17T10:44:35.497Z,87.79
2022-11-17T10:47:01.772Z,87.14
2022-11-17T10:49:22.942Z,87.36
2022-11-17T10:51:27.500Z,87.51
2022-11-17T10:53:35.919Z,86.53
2022-11-17T10:55:44.037Z,86.95
2022-11-17T10:57:51.626Z,87.26
2022-11-17T10:59:57.662Z,86.31
2022-11-17T11:02:26.093Z,86.57
2022-11-17T11:04:32.561Z,86.35
2022-11-17T11:06:36.324Z,86.75
2022-11-17T11:08:52.689Z,85.88
2022-11-17T11:10:56.924Z,84.93
2022-11-17T11:13:07.500Z,84.91
2022-11-17T11:15:16.332Z,83.45
2022-11-17T11:17:20.387Z,84.12
2022-11-17T11:19:23.580Z,84.21
2022-11-17T11:21:40.684Z,83.28
2022-11-17T11:23:52.383Z,83.67
2022-11-17T11:25:59.927Z,83.13
2022-11-17T11:28:14.599Z,85.23
2022-11-17T11:30:19.372Z,83.51
2022-11-17T11:32:27.530Z,83.61
2022-11-17T11:35:05.719Z,82.86
2022-11-17T11:37:10.425Z,82.46
2022-11-17T11:39:22.985Z,83.89
2022-11-17T11:41:47.784Z,82.57
2022-11-17T11:44:00.768Z,82.05
2022-11-17T11:46:10.825Z,83.16
2022-11-17T11:48:17.761Z,82.45
2022-11-17T11:50:23.191Z,83.19
2022-11-17T11:52:28.865Z,83.81
2022-11-17T11:54:38.175Z,83.43
2022-11-17T11:56:46.023Z,83.57
2022-11-17T11:58:55.156Z,82.68
2022-11-17T12:01:03.286Z,81.54
2022-11-17T12:03:15.092Z,82.36
2022-11-17T12:05:24.577Z,82.38
2022-11-17T12:07:34.688Z,81.97
2022-11-17T12:09:54.423Z,81.88
2022-11-17T12:12:03.223Z,81.28
2022-11-17T12:14:08.253Z,82.06
2022-11-17T12:16:21.208Z,80.61
2022-11-17T12:18:33.378Z,80.76
2022-11-17T12:20:55.325Z,80.86
2022-11-17T12:23:10.380Z,81.21
2022-11-17T12:25:18.632Z,80.61
2022-11-17T12:27:43.422Z,79.98
2022-11-17T12:29:48.394Z,79.04
2022-11-17T12:31:52.572Z,80.15
2022-11-17T12:34:24.088Z,78.84
2022-11-17T12:36:31.173Z,80.05
2022-11-17T12:38:43.841Z,81.85
2022-11-17T12:40:47.745Z,79.07
2022-11-17T12:43:20.472Z,79.61
2022-11-17T12:45:24.869Z,80.00
2022-11-17T12:47:33.251Z,79.48
2022-11-17T12:49:42.650Z,78.50
2022-11-17T12:51:54.159Z,79.66
2022-11-17T12:54:04.427Z,80.06
2022-11-17T12:56:38.553Z,78.97
2022-11-17T12:58:49.963Z,78.29
2022-11-17T13:01:03.375Z,79.74
2022-11-17T13:03:10.761Z,80.41
2022-11-17T13:05:18.729Z,79.50
2022-11-17T13:07:23.953Z,80.70
2022-11-17T13:09:28.622Z,81.42
2022-11-17T13:11:31.671Z,79.92
2022-11-17T13:13:37.003Z,79.96
2022-11-17T13:15:42.103Z,79.20
2022-11-17T13:17:47.166Z,79.85
2022-11-17T13:19:59.522Z,79.25
2022-11-17T13:22:05.677Z,78.48
2022-11-17T13:24:09.661Z,80.28
2022-11-17T13:26:20.845Z,78.98
2022-11-17T13:28:28.797Z,79.89
2022-11-17T13:30:32.815Z,79.21
2022-11-17T13:32:36.151Z,80.91
2022-11-17T13:34:51.508Z,79.60
2022-11-17T13:36:55.388Z,79.86
2022-11-17T13:39:00.598Z,79.88
2022-11-17T13:41:04.254Z,79.65
2022-11-17T13:43:08.972Z,80.04
2022-11-17T13:45:14.834Z,80.54
2022-11-17T13:47:21.699Z,79.72
2022-11-17T13:49:31.924Z,80.04
2022-11-17T13:51:39.572Z,81.56
2022-11-17T13:53:43.498Z,80.88
2022-11-17T13:55:47.360Z,80.02
2022-11-17T13:57:56.723Z,81.18
2022-11-17T14:00:01.455Z,80.70
2022-11-17T14:02:29.564Z,80.89
2022-11-17T14:04:32.663Z,79.47
2022-11-17T14:06:58.111Z,80.16
2022-11-17T14:09:06.389Z,80.12
2022-11-17T14:11:21.292Z,81.83
2022-11-17T14:13:29.953Z,82.51
2022-11-17T14:15:35.293Z,81.49
2022-11-17T14:17:38.781Z,80.86
2022-11-17T14:19:41.853Z,80.51
2022-11-17T14:22:00.357Z,78.46
2022-11-17T14:24:06.536Z,78.79
2022-11-17T14:26:20.759Z,78.96
2022-11-17T14:28:24.483Z,76.33
2022-11-17T14:30:27.602Z,77.56
2022-11-17T14:32:32.253Z,77.22
2022-11-17T14:34:35.354Z,78.40
2022-11-17T14:36:39.259Z,79.08
2022-11-17T14:38:44.109Z,78.35
2022-11-17T14:40:47.400Z,79.67
2022-11-17T14:42:50.473Z,79.59
2022-11-17T14:44:53.545Z,79.97
2022-11-17T14:46:56.728Z,79.31
2022-11-17T14:48:59.866Z,79.73
2022-11-17T14:51:03.112Z,79.01
2022-11-17T14:53:06.265Z,79.57
2022-11-17T14:55:11.559Z,79.00
2022-11-17T14:57:14.644Z,78.43
2022-11-17T14:59:18.026Z,78.79
2022-11-17T15:01:25.320Z,79.09
2022-11-17T15:03:28.453Z,78.49
2022-11-17T15:05:31.495Z,79.22
2022-11-17T15:07:34.822Z,78.99
2022-11-17T15:09:37.995Z,78.92
2022-11-17T15:11:42.514Z,79.48
2022-11-17T15:13:45.589Z,78.96
2022-11-17T15:15:48.642Z,79.13
2022-11-17T15:17:51.807Z,79.62
2022-11-17T15:19:55.711Z,80.00
2022-11-17T15:21:58.740Z,79.70
2022-11-17T15:24:03.376Z,79.22
2022-11-17T15:26:07.550Z,80.34
2022-11-17T15:28:15.303Z,81.12
2022-11-17T15:30:21.979Z,81.79
2022-11-17T15:32:25.350Z,81.06
2022-11-17T15:34:28.446Z,81.59
2022-11-17T15:36:31.949Z,80.34
2022-11-17T15:38:35.551Z,80.58
2022-11-17T15:40:38.856Z,79.14
2022-11-17T15:42:41.910Z,79.66
2022-11-17T15:44:46.394Z,80.15
2022-11-17T15:46:49.476Z,80.39
2022-11-17T15:48:52.902Z,80.48
2022-11-17T15:50:59.584Z,80.71
2022-11-17T15:53:04.413Z,80.33
2022-11-17T15:55:08.802Z,80.92
2022-11-17T15:57:11.848Z,81.30
2022-11-17T15:59:15.197Z,81.71
2022-11-17T16:01:28.428Z,83.15
2022-11-17T16:03:31.446Z,83.06
2022-11-17T16:05:34.649Z,81.99
2022-11-17T16:07:37.915Z,82.35
2022-11-17T16:09:42.248Z,81.70
2022-11-17T16:11:46.976Z,82.06
2022-11-17T16:13:52.574Z,82.52
2022-11-17T16:15:55.956Z,83.31
2022-11-17T16:18:00.350Z,83.22
2022-11-17T16:20:03.360Z,83.11
2022-11-17T16:22:06.493Z,82.24
2022-11-17T16:24:11.781Z,83.28
2022-11-17T16:26:16.219Z,82.81
2022-11-17T16:28:19.373Z,83.16
2022-11-17T16:30:22.429Z,82.84
2022-11-17T16:32:25.427Z,82.38
2022-11-17T16:34:29.876Z,82.23
2022-11-17T16:36:36.539Z,82.13
2022-11-17T16:38:55.094Z,81.99
2022-11-17T16:41:03.244Z,82.33
2022-11-17T16:43:06.489Z,82.23
2022-11-17T16:45:09.844Z,82.09
2022-11-17T16:47:12.797Z,82.82
2022-11-17T16:49:17.873Z,83.48
2022-11-17T16:51:23.125Z,85.69
2022-11-17T16:53:26.179Z,85.67
2022-11-17T16:55:29.314Z,85.75
2022-11-17T16:57:33.158Z,86.34
2022-11-17T16:59:40.047Z,85.69
2022-11-17T17:01:43.087Z,85.76
2022-11-17T17:03:46.292Z,85.48
2022-11-17T17:05:49.569Z,84.88
2022-11-17T17:07:53.924Z,84.09
2022-11-17T17:09:57.081Z,84.50
2022-11-17T17:12:00.181Z,83.83
2022-11-17T17:14:05.063Z,84.02
2022-11-17T17:16:10.341Z,85.15
2022-11-17T17:18:13.843Z,85.42
2022-11-17T17:20:17.273Z,86.83
2022-11-17T17:22:20.526Z,87.98
2022-11-17T17:24:25.001Z,87.16
2022-11-17T17:26:30.845Z,88.25
2022-11-17T17:28:34.799Z,89.16
2022-11-17T17:30:37.920Z,89.46
2022-11-17T17:32:40.952Z,89.30
2022-11-17T17:34:44.021Z,89.47
2022-11-17T17:36:47.267Z,89.78
2022-11-17T17:38:55.418Z,89.77
2022-11-17T17:41:05.693Z,90.00
2022-11-17T17:43:08.708Z,91.06
2022-11-17T17:45:12.729Z,90.65
2022-11-17T17:47:16.267Z,91.03
2022-11-17T17:49:20.184Z,91.62
2022-11-17T17:51:25.097Z,92.15
2022-11-17T17:53:28.191Z,92.87
2022-11-17T17:55:31.232Z,92.93
2022-11-17T17:57:37.256Z,92.32
2022-11-17T17:59:40.581Z,92.80
2022-11-17T18:01:46.208Z,93.17
2022-11-17T18:03:54.206Z,92.78
2022-11-17T18:06:00.209Z,92.69
2022-11-17T18:08:04.799Z,92.95
2022-11-17T18:10:08.800Z,93.49
2022-11-17T18:12:11.951Z,93.78
2022-11-17T18:14:17.270Z,94.03
2022-11-17T18:16:23.704Z,94.21
2022-11-17T18:18:26.812Z,93.87
2022-11-17T18:20:29.959Z,93.81
2022-11-17T18:22:33.367Z,94.44
2022-11-17T18:24:36.480Z,94.87
2022-11-17T18:26:46.938Z,94.65
2022-11-17T18:28:52.514Z,94.37
2022-11-17T18:30:57.093Z,94.98
2022-11-17T18:33:02.962Z,93.15
2022-11-17T18:35:07.201Z,92.24
2022-11-17T18:37:10.355Z,92.00
2022-11-17T18:39:13.758Z,91.49
2022-11-17T18:41:18.424Z,91.91
2022-11-17T18:43:21.548Z,89.26
2022-11-17T18:45:24.697Z,89.62
2022-11-17T18:47:29.089Z,90.24
2022-11-17T18:49:34.520Z,90.47
2022-11-17T18:51:37.659Z,91.21
2022-11-17T18:53:41.918Z,92.38
2022-11-17T18:55:44.946Z,92.27
2022-11-17T18:57:48.763Z,94.12
2022-11-17T18:59:53.315Z,93.86
2022-11-17T19:01:56.362Z,95.72
2022-11-17T19:04:01.951Z,95.01
2022-11-17T19:06:05.951Z,95.06
2022-11-17T19:08:09.043Z,96.17
2022-11-17T19:10:12.026Z,95.42
2022-11-17T19:12:15.183Z,94.43
2022-11-17T19:14:18.213Z,94.67
2022-11-17T19:16:22.570Z,95.94
2022-11-17T19:18:25.754Z,95.75
2022-11-17T19:20:30.414Z,96.37
2022-11-17T19:22:35.234Z,95.08
2022-11-17T19:24:39.734Z,95.09
2022-11-17T19:26:43.332Z,95.29
2022-11-17T19:28:47.791Z,95.72
2022-11-17T19:30:50.910Z,95.67
2022-11-17T19:32:54.699Z,96.88
2022-11-17T19:35:04.831Z,96.49
2022-11-17T19:37:16.499Z,96.34
2022-11-17T19:39:20.243Z,95.25
2022-11-17T19:41:25.230Z,94.42
2022-11-17T19:43:30.854Z,94.65
2022-11-17T19:45:34.724Z,95.41
2022-11-17T19:47:37.780Z,96.57
2022-11-17T19:49:40.924Z,97.20
2022-11-17T19:51:44.219Z,97.47
2022-11-17T19:53:49.134Z,97.77
2022-11-17T19:55:52.664Z,97.73
2022-11-17T19:57:55.916Z,97.57
2022-11-17T19:59:59.125Z,97.01
2022-11-17T20:02:02.450Z,97.14
2022-11-17T20:04:06.637Z,97.69
2022-11-17T20:06:11.864Z,97.53
2022-11-17T20:08:15.160Z,97.71
2022-11-17T20:10:20.367Z,98.20
2022-11-17T20:12:23.669Z,97.37
2022-11-17T20:14:26.810Z,98.40
2022-11-17T20:16:30.487Z,97.82
2022-11-17T20:18:33.640Z,97.54
2022-11-17T20:20:37.880Z,98.35
2022-11-17T20:22:40.998Z,97.69
2022-11-17T20:24:44.374Z,97.77
2022-11-17T20:26:49.118Z,98.68
2022-11-17T20:28:52.299Z,98.03
2022-11-17T20:30:55.460Z,97.34
2022-11-17T20:32:58.925Z,99.42
2022-11-17T20:35:02.136Z,98.86
2022-11-17T20:37:05.292Z,98.50
2022-11-17T20:39:08.564Z,98.46
2022-11-17T20:41:11.960Z,98.36
2022-11-17T20:43:16.377Z,97.63
2022-11-17T20:45:19.469Z,98.25
2022-11-17T20:47:27.472Z,97.84
2022-11-17T20:49:30.685Z,98.58
2022-11-17T20:51:33.827Z,97.87
2022-11-17T20:53:37.030Z,98.13
2022-11-17T20:55:40.120Z,98.00
2022-11-17T20:57:43.306Z,98.88
2022-11-17T20:59:47.827Z,100.00
2022-11-17T21:01:50.986Z,98.59
2022-11-17T21:03:54.144Z,99.15
2022-11-17T21:05:59.404Z,99.32
2022-11-17T21:08:02.749Z,99.19
2022-11-17T21:10:06.286Z,100.00
2022-11-17T21:12:09.693Z,97.91
2022-11-17T21:14:13.895Z,97.16
2022-11-17T21:16:18.464Z,98.30
2022-11-17T21:18:26.600Z,98.58
2022-11-17T21:20:29.697Z,99.50
2022-11-17T21:22:34.128Z,99.08
2022-11-17T21:24:37.264Z,98.43
2022-11-17T21:26:40.339Z,99.63
2022-11-17T21:28:43.412Z,100.00
2022-11-17T21:30:46.476Z,100.00
2022-11-17T21:32:50.941Z,99.47
2022-11-17T21:34:54.256Z,98.86
2022-11-17T21:36:57.347Z,99.86
2022-11-17T21:39:00.907Z,100.00
2022-11-17T21:41:04.750Z,100.00
2022-11-17T21:43:07.849Z,100.00
2022-11-17T21:45:11.717Z,100.00
2022-11-17T21:47:14.844Z,100.00
2022-11-17T21:49:19.508Z,100.00
2022-11-17T21:51:24.634Z,100.00
2022-11-17T21:53:27.772Z,100.00
2022-11-17T21:55:31.073Z,100.00
2022-11-17T21:57:34.064Z,100.00
2022-11-17T21:59:37.069Z,100.00
2022-11-17T22:01:40.602Z,100.00
2022-11-17T22:03:44.048Z,100.00
2022-11-17T22:05:50.096Z,100.00
2022-11-17T22:08:25.322Z,100.00
2022-11-17T22:12:51.114Z,100.00
2022-11-17T22:14:54.611Z,100.00
2022-11-17T22:16:57.863Z,100.00
2022-11-17T22:19:09.907Z,100.00
2022-11-17T22:21:33.484Z,100.00
2022-11-17T22:23:39.477Z,100.00
2022-11-17T22:25:45.489Z,99.81
2022-11-17T22:27:49.281Z,98.46
2022-11-17T22:29:52.381Z,99.28
2022-11-17T22:31:55.443Z,100.00
2022-11-17T22:33:58.769Z,99.54
2022-11-17T22:36:02.046Z,99.10
2022-11-17T22:38:06.450Z,99.48
2022-11-17T22:40:09.885Z,99.75
2022-11-17T22:42:14.233Z,99.14
2022-11-17T22:44:17.845Z,98.97
2022-11-17T22:46:21.780Z,97.65
2022-11-17T22:48:24.934Z,98.15
2022-11-17T22:50:28.045Z,96.84
2022-11-17T22:52:31.226Z,98.81
2022-11-17T22:54:36.126Z,97.54
2022-11-17T22:56:39.255Z,97.96
2022-11-17T22:58:46.577Z,97.25
2022-11-17T23:00:53.110Z,98.43
2022-11-17T23:02:56.377Z,97.37
2022-11-17T23:04:59.562Z,96.25
2022-11-17T23:07:02.684Z,97.35
2022-11-17T23:09:05.960Z,97.96
2022-11-17T23:11:35.604Z,98.20
2022-11-17T23:13:34.190Z,96.97
2022-11-17T23:15:39.655Z,96.40
2022-11-17T23:17:43.022Z,97.68
2022-11-17T23:19:46.019Z,96.90
2022-11-17T23:21:49.211Z,96.67
2022-11-17T23:23:52.428Z,96.10
2022-11-17T23:25:55.625Z,96.75
2022-11-17T23:28:00.093Z,97.25
2022-11-17T23:30:03.105Z,96.30
2022-11-17T23:32:06.632Z,97.70
2022-11-17T23:34:10.597Z,98.01
2022-11-17T23:36:15.106Z,96.91
2022-11-17T23:38:18.335Z,96.79
2022-11-17T23:40:21.424Z,98.41
2022-11-17T23:42:27.499Z,98.18
2022-11-17T23:44:35.851Z,98.36
2022-11-17T23:46:38.907Z,97.57
2022-11-17T23:48:42.141Z,98.76
2022-11-17T23:50:45.233Z,96.64
2022-11-17T23:52:48.275Z,96.97
2022-11-17T23:54:51.350Z,97.28
2022-11-17T23:56:54.431Z,98.58
2022-11-17T23:58:57.451Z,98.64
